Time;durP1;ratioP1;P1;durP2;ratioP2;P2;SDS_P1;SDS_P2;PMS_P1;PMS_P2;Temp;Humidity;BMP_temperature;BMP_pressure;BME280_temperature;BME280_humidity;BME280_pressure;Samples;Min_cycle;Max_cycle;Signal;HPM_P1;HPM_P2
2022/01/20 00:00:42;;;;;;;;;;;19.50;39.20;;;;;;5076622;28;20007;-65
2022/01/20 00:03:13;;;;;;;;;;;19.40;39.20;;;;;;5076790;28;20228;-64
2022/01/20 00:27:14;;;;;;;;;;;19.40;39.10;;;;;;5076163;28;19916;-65
2022/01/20 00:32:19;;;;;;;;;;;19.40;39.10;;;;;;5076275;28;19908;-65
2022/01/20 00:37:20;;;;;;;;;;;19.40;39.10;;;;;;5076084;28;19908;-65
2022/01/20 00:39:45;;;;;;;;;;;19.40;39.10;;;;;;5075724;28;19928;-65
2022/01/20 00:42:11;;;;;;;;;;;19.40;39.10;;;;;;5075821;28;20100;-65
2022/01/20 00:44:37;;;;;;;;;;;19.40;39.10;;;;;;5075799;28;20007;-65
2022/01/20 00:47:03;;;;;;;;;;;19.40;39.10;;;;;;5075079;28;19909;-65
2022/01/20 00:49:28;;;;;;;;;;;19.40;39.10;;;;;;5057686;28;20399;-65
2022/01/20 00:51:54;;;;;;;;;;;19.40;39.10;;;;;;5075682;28;19954;-65
2022/01/20 00:54:19;;;;;;;;;;;19.40;39.10;;;;;;5075611;28;19916;-65
2022/01/20 00:56:45;;;;;;;;;;;19.40;39.10;;;;;;5075733;28;19958;-65
2022/01/20 00:59:10;;;;;;;;;;;19.40;39.10;;;;;;5075345;28;19998;-65
2022/01/20 01:01:36;;;;;;;;;;;19.40;39.10;;;;;;5075368;28;19909;-64
2022/01/20 01:04:02;;;;;;;;;;;19.30;39.10;;;;;;5075670;28;19908;-65
2022/01/20 01:08:59;;;;;;;;;;;19.40;39.10;;;;;;5075622;28;19912;-65
2022/01/20 01:11:25;;;;;;;;;;;19.40;39.10;;;;;;5075243;28;20149;-65
2022/01/20 01:13:52;;;;;;;;;;;19.40;39.10;;;;;;5075492;28;19908;-65
2022/01/20 01:16:19;;;;;;;;;;;19.40;39.00;;;;;;5075132;28;19908;-65
2022/01/20 01:21:41;;;;;;;;;;;19.40;39.10;;;;;;5075412;28;19966;-65
2022/01/20 01:24:06;;;;;;;;;;;19.40;39.10;;;;;;5075032;28;19915;-65
2022/01/20 01:26:32;;;;;;;;;;;19.30;39.10;;;;;;5057086;28;19999;-65
2022/01/20 01:28:59;;;;;;;;;;;19.30;39.00;;;;;;5075096;28;19909;-65
2022/01/20 01:31:42;;;;;;;;;;;19.30;39.10;;;;;;5075065;28;19947;-65
2022/01/20 01:34:11;;;;;;;;;;;19.30;39.10;;;;;;5074827;28;19942;-66
2022/01/20 01:36:51;;;;;;;;;;;19.30;39.10;;;;;;5075011;28;19909;-65
2022/01/20 01:39:17;;;;;;;;;;;19.30;39.10;;;;;;5074637;28;19920;-65
2022/01/20 01:41:44;;;;;;;;;;;19.30;39.10;;;;;;5074873;28;19909;-65
2022/01/20 01:44:10;;;;;;;;;;;19.30;39.10;;;;;;5074611;28;19915;-65
2022/01/20 01:46:37;;;;;;;;;;;19.30;39.10;;;;;;5074588;28;20007;-65
2022/01/20 01:49:03;;;;;;;;;;;19.30;39.10;;;;;;5074443;28;20391;-65
2022/01/20 01:51:29;;;;;;;;;;;19.30;39.10;;;;;;5056765;28;19912;-65
2022/01/20 01:53:54;;;;;;;;;;;19.30;39.10;;;;;;5074394;28;19908;-65
2022/01/20 01:56:20;;;;;;;;;;;19.30;39.10;;;;;;5074305;28;19910;-65
2022/01/20 01:58:45;;;;;;;;;;;19.30;39.10;;;;;;5073268;28;19924;-65
2022/01/20 02:01:11;;;;;;;;;;;19.30;39.10;;;;;;5074197;28;19919;-65
2022/01/20 02:03:44;;;;;;;;;;;19.30;39.10;;;;;;5074247;28;20364;-65
2022/01/20 02:06:30;;;;;;;;;;;19.30;39.10;;;;;;5074273;28;19962;-65
2022/01/20 02:19:59;;;;;;;;;;;19.20;39.10;;;;;;5073975;28;19923;-65
2022/01/20 02:22:25;;;;;;;;;;;19.20;39.10;;;;;;5074138;28;19912;-65
2022/01/20 02:24:51;;;;;;;;;;;19.20;39.10;;;;;;5073814;28;20016;-66
2022/01/20 02:27:16;;;;;;;;;;;19.20;39.10;;;;;;5073725;28;19927;-65
2022/01/20 02:29:43;;;;;;;;;;;19.20;39.10;;;;;;5074058;28;19908;-65
2022/01/20 02:32:09;;;;;;;;;;;19.20;39.10;;;;;;5073656;28;20371;-65
2022/01/20 02:34:34;;;;;;;;;;;19.20;39.10;;;;;;5073768;28;19908;-65
2022/01/20 02:37:04;;;;;;;;;;;19.20;39.10;;;;;;5073640;28;19944;-65
2022/01/20 02:44:57;;;;;;;;;;;19.20;39.10;;;;;;5073909;28;19919;-65
2022/01/20 02:47:29;;;;;;;;;;;19.20;39.10;;;;;;5073508;28;19916;-65
2022/01/20 02:49:55;;;;;;;;;;;19.20;39.10;;;;;;5073556;28;19962;-65
2022/01/20 02:52:21;;;;;;;;;;;19.20;39.10;;;;;;5073526;28;19916;-65
2022/01/20 02:54:47;;;;;;;;;;;19.20;39.10;;;;;;5073655;28;19944;-65
2022/01/20 02:57:12;;;;;;;;;;;19.20;39.10;;;;;;5073327;28;19908;-64
2022/01/20 02:59:38;;;;;;;;;;;19.20;39.10;;;;;;5073347;28;19959;-65
2022/01/20 03:02:05;;;;;;;;;;;19.20;39.00;;;;;;5073460;28;19962;-65
2022/01/20 03:04:30;;;;;;;;;;;19.20;39.10;;;;;;5073418;28;20006;-65
2022/01/20 03:06:56;;;;;;;;;;;19.20;39.10;;;;;;5073548;28;20021;-65
2022/01/20 03:09:21;;;;;;;;;;;19.20;39.10;;;;;;5073591;28;19909;-65
2022/01/20 03:11:47;;;;;;;;;;;19.20;39.10;;;;;;5073201;28;19908;-65
2022/01/20 03:14:14;;;;;;;;;;;19.20;39.10;;;;;;5073417;28;19971;-65
2022/01/20 03:16:40;;;;;;;;;;;19.20;39.10;;;;;;5073298;28;19916;-65
2022/01/20 03:19:05;;;;;;;;;;;19.20;39.10;;;;;;5073171;28;19916;-65
2022/01/20 03:21:30;;;;;;;;;;;19.20;39.10;;;;;;5073218;28;19966;-65
2022/01/20 03:23:56;;;;;;;;;;;19.20;39.10;;;;;;5073237;28;20363;-65
2022/01/20 03:26:21;;;;;;;;;;;19.20;39.00;;;;;;5073462;28;20244;-65
2022/01/20 03:28:47;;;;;;;;;;;19.10;39.10;;;;;;5073102;28;20010;-65
2022/01/20 03:31:12;;;;;;;;;;;19.20;39.10;;;;;;5073151;28;19913;-65
2022/01/20 03:33:38;;;;;;;;;;;19.20;39.10;;;;;;5073378;28;19915;-65
2022/01/20 03:36:03;;;;;;;;;;;19.20;39.00;;;;;;5072989;28;19909;-65
2022/01/20 03:38:29;;;;;;;;;;;19.20;39.10;;;;;;5072955;28;19924;-66
2022/01/20 03:40:54;;;;;;;;;;;19.10;39.10;;;;;;5073213;28;19909;-65
2022/01/20 03:43:20;;;;;;;;;;;19.20;39.10;;;;;;5073239;28;20344;-65
2022/01/20 03:45:50;;;;;;;;;;;19.10;39.00;;;;;;5073282;28;19920;-65
2022/01/20 03:48:15;;;;;;;;;;;19.10;39.00;;;;;;5072952;28;20104;-65
2022/01/20 03:50:59;;;;;;;;;;;19.20;39.00;;;;;;5072790;28;19912;-65
2022/01/20 03:53:25;;;;;;;;;;;19.20;39.00;;;;;;5073168;28;19909;-65
2022/01/20 03:55:50;;;;;;;;;;;19.10;39.00;;;;;;5072999;28;20276;-66
2022/01/20 03:58:16;;;;;;;;;;;19.10;39.00;;;;;;5072762;28;20368;-65
2022/01/20 04:00:43;;;;;;;;;;;19.10;39.00;;;;;;5072823;28;19974;-65
2022/01/20 04:03:08;;;;;;;;;;;19.10;39.00;;;;;;5072704;28;19989;-65
2022/01/20 04:05:37;;;;;;;;;;;19.10;39.00;;;;;;5073019;28;19944;-66
2022/01/20 04:08:02;;;;;;;;;;;19.10;39.00;;;;;;5072744;28;19940;-65
2022/01/20 04:10:27;;;;;;;;;;;19.10;39.00;;;;;;5072609;28;19989;-65
2022/01/20 04:12:53;;;;;;;;;;;19.10;39.00;;;;;;5054682;28;19947;-65
2022/01/20 04:15:25;;;;;;;;;;;19.10;39.00;;;;;;5054690;28;19969;-65
2022/01/20 04:17:55;;;;;;;;;;;19.10;39.00;;;;;;5072810;28;20353;-65
2022/01/20 04:20:21;;;;;;;;;;;19.10;39.00;;;;;;5072474;28;20376;-65
2022/01/20 04:22:46;;;;;;;;;;;19.10;39.00;;;;;;5074236;28;19916;-65
2022/01/20 04:25:12;;;;;;;;;;;19.10;39.00;;;;;;5058235;28;20412;-66
2022/01/20 04:27:37;;;;;;;;;;;19.10;39.00;;;;;;5076101;28;20380;-65
2022/01/20 04:30:02;;;;;;;;;;;19.10;39.00;;;;;;5076191;28;19961;-65
2022/01/20 04:32:28;;;;;;;;;;;19.10;39.00;;;;;;5076249;28;19915;-65
2022/01/20 04:34:54;;;;;;;;;;;19.10;39.10;;;;;;5076206;28;19948;-65
2022/01/20 04:37:20;;;;;;;;;;;19.10;39.00;;;;;;5076180;28;19975;-65
2022/01/20 04:39:48;;;;;;;;;;;19.10;39.00;;;;;;5075994;28;19920;-66
2022/01/20 04:42:14;;;;;;;;;;;19.10;39.10;;;;;;5076084;28;19909;-65
2022/01/20 04:44:47;;;;;;;;;;;19.10;39.10;;;;;;5075800;28;19909;-65
2022/01/20 04:57:53;;;;;;;;;;;19.00;39.00;;;;;;5075488;28;19927;-65
2022/01/20 05:00:18;;;;;;;;;;;19.10;39.10;;;;;;5075691;28;19916;-65
2022/01/20 05:02:43;;;;;;;;;;;19.10;39.00;;;;;;5075478;28;19909;-65
2022/01/20 05:05:09;;;;;;;;;;;19.10;39.00;;;;;;5075688;28;20019;-65
2022/01/20 05:07:35;;;;;;;;;;;19.10;39.00;;;;;;5075574;28;19913;-65
2022/01/20 05:10:05;;;;;;;;;;;19.00;39.10;;;;;;5075329;28;19908;-65
2022/01/20 05:12:49;;;;;;;;;;;19.10;39.00;;;;;;5075506;28;19908;-65
2022/01/20 05:15:15;;;;;;;;;;;19.10;39.00;;;;;;5075182;28;20278;-65
2022/01/20 05:17:41;;;;;;;;;;;19.10;39.00;;;;;;5075464;28;19947;-65
2022/01/20 05:20:06;;;;;;;;;;;19.10;39.00;;;;;;5057086;28;20360;-65
2022/01/20 05:22:32;;;;;;;;;;;19.10;38.90;;;;;;5075360;28;20360;-65
2022/01/20 05:24:57;;;;;;;;;;;19.10;38.90;;;;;;5074969;28;19909;-65
2022/01/20 05:27:23;;;;;;;;;;;19.10;38.90;;;;;;5074997;28;19912;-65
2022/01/20 05:29:48;;;;;;;;;;;19.20;38.80;;;;;;5074935;28;19951;-65
2022/01/20 05:32:14;;;;;;;;;;;19.20;38.80;;;;;;5074884;28;19954;-65
2022/01/20 05:34:39;;;;;;;;;;;19.20;38.80;;;;;;5074668;28;19908;-65
2022/01/20 05:37:04;;;;;;;;;;;19.20;38.70;;;;;;5075024;28;19908;-65
2022/01/20 05:39:31;;;;;;;;;;;19.20;38.60;;;;;;5074677;28;20384;-64
2022/01/20 05:41:56;;;;;;;;;;;19.30;38.60;;;;;;5074812;28;19973;-65
2022/01/20 05:44:22;;;;;;;;;;;19.30;38.60;;;;;;5074854;28;19908;-65
2022/01/20 05:46:49;;;;;;;;;;;19.30;38.50;;;;;;5074654;28;19970;-65
2022/01/20 05:49:20;;;;;;;;;;;19.30;38.40;;;;;;5074657;28;19909;-65
2022/01/20 05:51:47;;;;;;;;;;;19.30;38.50;;;;;;5074681;28;19908;-65
2022/01/20 05:54:13;;;;;;;;;;;19.40;38.50;;;;;;5074460;28;19908;-65
2022/01/20 05:56:38;;;;;;;;;;;19.40;38.40;;;;;;5074355;28;19931;-65
2022/01/20 05:59:04;;;;;;;;;;;19.40;38.50;;;;;;5074237;28;19967;-66
2022/01/20 06:01:32;;;;;;;;;;;19.40;38.40;;;;;;5074538;28;19908;-65
2022/01/20 06:03:57;;;;;;;;;;;19.40;38.40;;;;;;5074462;28;19909;-65
2022/01/20 06:06:23;;;;;;;;;;;19.50;38.40;;;;;;5074234;28;19915;-66
2022/01/20 06:08:49;;;;;;;;;;;19.50;38.30;;;;;;5074131;28;19908;-65
2022/01/20 06:11:15;;;;;;;;;;;19.50;38.30;;;;;;5073966;28;20271;-65
2022/01/20 06:13:40;;;;;;;;;;;19.50;38.30;;;;;;5056196;28;19908;-65
2022/01/20 06:16:06;;;;;;;;;;;19.50;38.30;;;;;;5073907;28;19912;-65
2022/01/20 06:18:31;;;;;;;;;;;19.50;38.30;;;;;;5073720;28;19928;-65
2022/01/20 06:20:57;;;;;;;;;;;19.50;38.30;;;;;;5073946;28;20414;-64
2022/01/20 06:23:23;;;;;;;;;;;19.50;38.30;;;;;;5073939;28;19915;-64
2022/01/20 06:25:49;;;;;;;;;;;19.50;38.20;;;;;;5073942;28;19953;-64
2022/01/20 06:28:15;;;;;;;;;;;19.50;38.20;;;;;;5073510;28;19961;-65
2022/01/20 06:30:40;;;;;;;;;;;19.50;38.20;;;;;;5073833;28;19912;-65
2022/01/20 06:33:06;;;;;;;;;;;19.50;38.20;;;;;;5073866;28;19966;-64
2022/01/20 06:35:31;;;;;;;;;;;19.50;38.10;;;;;;5074026;28;19908;-65
2022/01/20 06:37:57;;;;;;;;;;;19.50;38.10;;;;;;5073814;28;19908;-64
2022/01/20 06:40:23;;;;;;;;;;;19.50;38.10;;;;;;5073932;28;20271;-65
2022/01/20 06:42:49;;;;;;;;;;;19.50;38.10;;;;;;5073781;28;19995;-65
2022/01/20 06:45:15;;;;;;;;;;;19.50;38.10;;;;;;5073231;28;19990;-65
2022/01/20 06:47:40;;;;;;;;;;;19.50;38.10;;;;;;5073410;28;19909;-64
2022/01/20 06:50:08;;;;;;;;;;;19.50;38.10;;;;;;5073788;28;19958;-64
2022/01/20 06:52:34;;;;;;;;;;;19.50;38.10;;;;;;5073459;28;19915;-64
2022/01/20 06:55:00;;;;;;;;;;;19.50;38.00;;;;;;5073431;28;19912;-65
2022/01/20 06:57:26;;;;;;;;;;;19.60;38.00;;;;;;5055320;28;20327;-64
2022/01/20 06:59:51;;;;;;;;;;;19.60;38.10;;;;;;5073409;28;19943;-65
2022/01/20 07:02:17;;;;;;;;;;;19.50;38.10;;;;;;5073362;28;19962;-65
2022/01/20 07:04:43;;;;;;;;;;;19.60;38.00;;;;;;5055451;28;20035;-65
2022/01/20 07:07:09;;;;;;;;;;;19.60;38.00;;;;;;5073527;28;19909;-64
2022/01/20 07:09:35;;;;;;;;;;;19.60;38.00;;;;;;5073585;28;19916;-64
2022/01/20 07:12:01;;;;;;;;;;;19.60;37.90;;;;;;5073325;28;19908;-65
2022/01/20 07:14:26;;;;;;;;;;;19.60;38.00;;;;;;5073604;28;20276;-65
2022/01/20 07:16:52;;;;;;;;;;;19.60;38.00;;;;;;5073653;28;20352;-65
2022/01/20 07:19:18;;;;;;;;;;;19.60;37.90;;;;;;5073426;28;19969;-65
2022/01/20 07:21:43;;;;;;;;;;;19.60;37.90;;;;;;5073342;28;19915;-64
2022/01/20 07:24:09;;;;;;;;;;;19.60;37.90;;;;;;5073235;28;19916;-64
2022/01/20 07:26:34;;;;;;;;;;;19.60;37.90;;;;;;5073309;28;19913;-65
2022/01/20 07:29:00;;;;;;;;;;;19.60;37.80;;;;;;5073053;28;19916;-66
2022/01/20 07:31:25;;;;;;;;;;;19.60;37.70;;;;;;5072948;28;19916;-65
2022/01/20 07:33:51;;;;;;;;;;;19.60;37.70;;;;;;5073401;28;20286;-65
2022/01/20 07:36:16;;;;;;;;;;;19.60;37.70;;;;;;5073046;28;19915;-65
2022/01/20 07:38:42;;;;;;;;;;;19.70;37.60;;;;;;5072832;28;20253;-66
2022/01/20 07:41:08;;;;;;;;;;;19.70;37.60;;;;;;5072884;28;19993;-65
2022/01/20 07:43:33;;;;;;;;;;;19.60;37.60;;;;;;5072875;28;19916;-65
2022/01/20 07:45:58;;;;;;;;;;;19.60;37.60;;;;;;5072954;28;20171;-64
2022/01/20 07:48:24;;;;;;;;;;;19.60;37.50;;;;;;5072914;28;19982;-65
2022/01/20 07:50:50;;;;;;;;;;;19.60;37.60;;;;;;5072908;28;19908;-64
2022/01/20 07:53:15;;;;;;;;;;;19.60;37.50;;;;;;5076663;28;19922;-65
2022/01/20 07:55:41;;;;;;;;;;;19.70;37.60;;;;;;5092925;28;19991;-65
2022/01/20 07:58:06;;;;;;;;;;;19.70;37.50;;;;;;5094613;28;19931;-65
2022/01/20 08:00:32;;;;;;;;;;;19.60;38.00;;;;;;5096750;28;19916;-65
2022/01/20 08:02:57;;;;;;;;;;;19.70;37.70;;;;;;5096438;28;19915;-65
2022/01/20 08:05:23;;;;;;;;;;;19.70;37.60;;;;;;5061216;28;19908;-65
2022/01/20 08:07:48;;;;;;;;;;;19.70;37.50;;;;;;5088636;28;19999;-65
2022/01/20 08:10:14;;;;;;;;;;;19.70;37.60;;;;;;5076127;28;20343;-65
2022/01/20 08:12:40;;;;;;;;;;;19.70;37.50;;;;;;5086914;28;19919;-67
2022/01/20 08:15:09;;;;;;;;;;;19.70;37.90;;;;;;5094809;28;19912;-66
2022/01/20 08:17:36;;;;;;;;;;;19.70;37.60;;;;;;5090210;28;19913;-67
2022/01/20 08:20:02;;;;;;;;;;;19.70;37.50;;;;;;5086198;28;19923;-65
2022/01/20 08:22:28;;;;;;;;;;;19.70;37.60;;;;;;5079888;28;20070;-65
2022/01/20 08:24:53;;;;;;;;;;;19.70;37.60;;;;;;5079169;28;19909;-65
2022/01/20 08:27:19;;;;;;;;;;;19.70;37.80;;;;;;5075575;28;20301;-65
2022/01/20 08:29:45;;;;;;;;;;;19.70;37.60;;;;;;5075255;28;19908;-67
2022/01/20 08:32:10;;;;;;;;;;;19.70;37.70;;;;;;5087402;28;19951;-67
2022/01/20 08:34:36;;;;;;;;;;;19.80;37.80;;;;;;5095160;28;19912;-64
2022/01/20 08:37:01;;;;;;;;;;;19.80;37.60;;;;;;5079025;28;19948;-64
2022/01/20 08:42:03;;;;;;;;;;;19.70;37.70;;;;;;5094956;28;19912;-64
2022/01/20 08:44:28;;;;;;;;;;;19.80;37.70;;;;;;5095239;28;19922;-64
2022/01/20 08:46:54;;;;;;;;;;;19.80;37.70;;;;;;5085942;28;19916;-64
2022/01/20 08:49:20;;;;;;;;;;;19.70;37.70;;;;;;5073077;28;19912;-65
2022/01/20 08:51:46;;;;;;;;;;;19.80;37.70;;;;;;5073233;28;19969;-64
2022/01/20 08:54:12;;;;;;;;;;;19.70;37.70;;;;;;5073522;28;19919;-65
2022/01/20 08:56:38;;;;;;;;;;;19.80;37.70;;;;;;5087582;28;20048;-62
2022/01/20 08:59:07;;;;;;;;;;;19.80;37.80;;;;;;5094326;28;19920;-64
2022/01/20 09:01:33;;;;;;;;;;;19.80;37.70;;;;;;5094653;28;19916;-62
2022/01/20 09:03:58;;;;;;;;;;;19.80;37.80;;;;;;5094854;28;19962;-64
2022/01/20 09:06:24;;;;;;;;;;;19.80;37.80;;;;;;5093823;28;19924;-63
2022/01/20 09:08:49;;;;;;;;;;;19.80;37.70;;;;;;5094060;28;19908;-63
2022/01/20 09:11:37;;;;;;;;;;;19.80;37.80;;;;;;5094500;28;20352;-62
2022/01/20 09:16:48;;;;;;;;;;;19.90;37.70;;;;;;5074492;28;19970;-62
2022/01/20 09:19:13;;;;;;;;;;;19.90;37.70;;;;;;5073938;28;20364;-62
2022/01/20 09:21:39;;;;;;;;;;;20.00;37.60;;;;;;5094560;28;19909;-62
2022/01/20 09:24:05;;;;;;;;;;;19.90;37.80;;;;;;5094130;28;19908;-63
2022/01/20 09:26:31;;;;;;;;;;;19.90;37.70;;;;;;5093815;28;20409;-63
2022/01/20 09:28:57;;;;;;;;;;;19.90;37.80;;;;;;5091676;28;20416;-63
2022/01/20 09:31:24;;;;;;;;;;;19.90;37.80;;;;;;5073833;28;19962;-63
2022/01/20 09:33:50;;;;;;;;;;;19.90;37.80;;;;;;5073588;28;19938;-63
2022/01/20 09:36:15;;;;;;;;;;;19.90;37.80;;;;;;5073564;28;19913;-62
2022/01/20 09:38:41;;;;;;;;;;;19.90;37.90;;;;;;5075651;28;19913;-63
2022/01/20 09:41:07;;;;;;;;;;;19.90;37.80;;;;;;5094352;28;20299;-61
2022/01/20 09:43:33;;;;;;;;;;;19.90;37.80;;;;;;5094738;28;19914;-63
2022/01/20 09:45:58;;;;;;;;;;;19.90;37.80;;;;;;5094600;28;19950;-64
2022/01/20 09:48:25;;;;;;;;;;;19.90;37.80;;;;;;5094406;28;19908;-63
2022/01/20 09:50:51;;;;;;;;;;;19.90;37.80;;;;;;5075610;28;20316;-63
2022/01/20 09:53:16;;;;;;;;;;;19.90;37.80;;;;;;5094334;28;20011;-63
2022/01/20 09:55:42;;;;;;;;;;;19.90;37.80;;;;;;5092754;28;19978;-61
2022/01/20 09:58:08;;;;;;;;;;;19.90;37.70;;;;;;5080989;28;20335;-63
2022/01/20 10:00:34;;;;;;;;;;;19.90;37.70;;;;;;5078387;28;20019;-63
2022/01/20 10:03:09;;;;;;;;;;;19.90;37.80;;;;;;5073308;28;20541;-63
2022/01/20 10:05:36;;;;;;;;;;;19.90;37.80;;;;;;5073914;28;19908;-63
2022/01/20 10:08:08;;;;;;;;;;;20.00;37.70;;;;;;5073930;28;19935;-63
2022/01/20 10:10:42;;;;;;;;;;;19.90;37.60;;;;;;5055536;28;19909;-63
2022/01/20 10:13:08;;;;;;;;;;;20.00;37.70;;;;;;5073500;28;19908;-63
2022/01/20 10:15:35;;;;;;;;;;;19.90;37.70;;;;;;5073675;28;19909;-63
2022/01/20 10:18:04;;;;;;;;;;;19.90;37.70;;;;;;5073641;28;19908;-62
2022/01/20 10:20:30;;;;;;;;;;;20.00;37.70;;;;;;5072851;28;20279;-63
2022/01/20 10:22:56;;;;;;;;;;;19.90;37.70;;;;;;5072185;28;19909;-62
2022/01/20 10:25:22;;;;;;;;;;;20.00;37.70;;;;;;5082207;28;20020;-63
2022/01/20 10:27:49;;;;;;;;;;;20.00;37.50;;;;;;5083792;28;19920;-62
2022/01/20 10:30:15;;;;;;;;;;;20.00;37.60;;;;;;5082660;28;19915;-63
2022/01/20 10:32:42;;;;;;;;;;;20.00;37.50;;;;;;5090131;28;19915;-66
2022/01/20 10:35:10;;;;;;;;;;;19.90;37.60;;;;;;5072986;28;19913;-65
2022/01/20 10:37:37;;;;;;;;;;;20.00;37.50;;;;;;5072474;28;20342;-66
2022/01/20 10:40:06;;;;;;;;;;;20.00;37.60;;;;;;5072799;28;19964;-66
2022/01/20 10:42:36;;;;;;;;;;;19.90;37.60;;;;;;5071952;28;19909;-66
2022/01/20 10:45:02;;;;;;;;;;;19.90;37.40;;;;;;5072522;28;19908;-65
2022/01/20 10:47:29;;;;;;;;;;;19.90;37.30;;;;;;5073160;28;20007;-65
2022/01/20 10:49:56;;;;;;;;;;;20.00;37.30;;;;;;5072671;28;19915;-64
2022/01/20 10:52:22;;;;;;;;;;;19.90;37.30;;;;;;5072283;28;20276;-66
2022/01/20 10:54:50;;;;;;;;;;;20.00;37.20;;;;;;5072814;28;19912;-66
2022/01/20 10:57:16;;;;;;;;;;;20.00;37.40;;;;;;5072792;28;19916;-65
2022/01/20 10:59:49;;;;;;;;;;;20.00;37.30;;;;;;5073286;28;20367;-65
2022/01/20 11:02:16;;;;;;;;;;;19.90;37.30;;;;;;5072359;28;19917;-66
2022/01/20 11:04:41;;;;;;;;;;;20.00;37.20;;;;;;5072393;28;20246;-65
2022/01/20 11:07:08;;;;;;;;;;;20.00;37.30;;;;;;5072605;28;20295;-66
2022/01/20 11:09:37;;;;;;;;;;;20.00;37.30;;;;;;5072539;28;20378;-66
2022/01/20 11:12:04;;;;;;;;;;;20.00;37.50;;;;;;5072950;28;19912;-65
2022/01/20 11:14:30;;;;;;;;;;;20.00;37.40;;;;;;5071581;28;19954;-65
2022/01/20 11:16:57;;;;;;;;;;;19.90;37.30;;;;;;5075298;28;19951;-66
2022/01/20 11:19:23;;;;;;;;;;;19.90;37.30;;;;;;5092592;28;19923;-67
2022/01/20 11:21:49;;;;;;;;;;;20.00;37.30;;;;;;5090222;28;19917;-67
2022/01/20 11:24:18;;;;;;;;;;;20.00;37.30;;;;;;5078332;28;19918;-67
2022/01/20 11:26:48;;;;;;;;;;;20.00;37.40;;;;;;5092237;28;19954;-67
2022/01/20 11:29:13;;;;;;;;;;;20.00;37.40;;;;;;5077239;28;19908;-67
2022/01/20 11:31:38;;;;;;;;;;;20.00;37.50;;;;;;5073345;28;20008;-67
2022/01/20 11:34:12;;;;;;;;;;;20.00;37.60;;;;;;5079260;28;20326;-67
2022/01/20 11:36:37;;;;;;;;;;;20.00;37.70;;;;;;5096255;28;19916;-67
2022/01/20 11:39:04;;;;;;;;;;;20.00;37.70;;;;;;5096334;28;19916;-67
2022/01/20 11:41:49;;;;;;;;;;;20.00;37.60;;;;;;5090587;28;19974;-67
2022/01/20 11:44:19;;;;;;;;;;;20.00;37.60;;;;;;5081497;28;19952;-65
2022/01/20 11:46:45;;;;;;;;;;;20.00;37.60;;;;;;5075046;28;20386;-67
2022/01/20 11:49:12;;;;;;;;;;;19.90;37.60;;;;;;5075941;28;19959;-65
2022/01/20 11:51:40;;;;;;;;;;;20.00;37.40;;;;;;5075557;28;19908;-65
2022/01/20 11:54:06;;;;;;;;;;;19.90;37.50;;;;;;5090602;28;20121;-66
2022/01/20 11:56:36;;;;;;;;;;;20.00;37.50;;;;;;5078200;28;19915;-64
2022/01/20 11:59:03;;;;;;;;;;;19.90;37.10;;;;;;5095127;28;19927;-64
2022/01/20 12:01:30;;;;;;;;;;;19.70;37.60;;;;;;5096266;28;20347;-64
2022/01/20 12:03:56;;;;;;;;;;;19.70;37.60;;;;;;5096361;28;19916;-64
2022/01/20 12:06:26;;;;;;;;;;;19.80;37.80;;;;;;5096134;28;19908;-64
2022/01/20 12:08:58;;;;;;;;;;;19.90;37.50;;;;;;5095852;28;19991;-64
2022/01/20 12:11:37;;;;;;;;;;;20.00;37.40;;;;;;5096202;28;20355;-65
2022/01/20 12:14:03;;;;;;;;;;;20.00;37.40;;;;;;5094860;28;19915;-64
2022/01/20 12:16:28;;;;;;;;;;;20.00;37.40;;;;;;5093075;28;20283;-64
2022/01/20 12:18:56;;;;;;;;;;;20.00;37.40;;;;;;5075688;28;19917;-64
2022/01/20 12:21:22;;;;;;;;;;;20.00;37.40;;;;;;5076181;28;19915;-65
2022/01/20 12:23:48;;;;;;;;;;;20.00;37.30;;;;;;5075879;28;19909;-64
2022/01/20 12:26:14;;;;;;;;;;;20.10;37.30;;;;;;5090728;28;19961;-64
2022/01/20 12:28:40;;;;;;;;;;;20.10;37.40;;;;;;5095306;28;19912;-65
2022/01/20 12:31:06;;;;;;;;;;;20.10;37.40;;;;;;5096065;28;19909;-63
2022/01/20 12:33:33;;;;;;;;;;;20.10;37.30;;;;;;5094511;28;19942;-65
2022/01/20 12:36:03;;;;;;;;;;;20.10;37.30;;;;;;5094824;28;19950;-64
2022/01/20 12:38:33;;;;;;;;;;;20.10;37.30;;;;;;5095263;28;19912;-64
2022/01/20 12:41:00;;;;;;;;;;;20.20;37.20;;;;;;5095253;28;19916;-64
2022/01/20 12:43:33;;;;;;;;;;;20.10;37.20;;;;;;5094093;28;19908;-65
2022/01/20 12:45:59;;;;;;;;;;;20.10;37.20;;;;;;5094578;28;19938;-63
2022/01/20 12:48:24;;;;;;;;;;;20.10;37.30;;;;;;5095328;28;19908;-64
2022/01/20 12:50:55;;;;;;;;;;;20.10;37.30;;;;;;5095683;28;19931;-63
2022/01/20 12:53:30;;;;;;;;;;;19.90;37.20;;;;;;5085612;28;19961;-64
2022/01/20 12:55:56;;;;;;;;;;;19.50;35.80;;;;;;5072189;28;19916;-64
2022/01/20 12:58:21;;;;;;;;;;;19.80;37.60;;;;;;5094653;28;19920;-63
2022/01/20 13:00:56;;;;;;;;;;;19.90;37.50;;;;;;5076189;28;19916;-63
2022/01/20 13:03:31;;;;;;;;;;;20.00;37.30;;;;;;5094094;28;20364;-64
2022/01/20 13:05:59;;;;;;;;;;;20.00;37.00;;;;;;5094588;28;20030;-64
2022/01/20 13:08:30;;;;;;;;;;;20.10;37.10;;;;;;5094607;28;19915;-65
2022/01/20 13:11:15;;;;;;;;;;;20.10;37.10;;;;;;5094173;28;20039;-62
2022/01/20 13:13:50;;;;;;;;;;;20.00;37.20;;;;;;5093233;28;19927;-64
2022/01/20 13:16:16;;;;;;;;;;;20.10;37.00;;;;;;5092972;28;19908;-65
2022/01/20 13:18:51;;;;;;;;;;;20.10;37.10;;;;;;5074409;28;19916;-65
2022/01/20 13:21:18;;;;;;;;;;;20.00;37.10;;;;;;5075396;28;19924;-63
2022/01/20 13:23:56;;;;;;;;;;;20.00;37.00;;;;;;5076211;28;20017;-64
2022/01/20 13:26:22;;;;;;;;;;;20.00;37.10;;;;;;5074842;28;19908;-64
2022/01/20 13:29:00;;;;;;;;;;;20.10;37.00;;;;;;5092207;28;19919;-64
2022/01/20 13:31:25;;;;;;;;;;;20.10;37.00;;;;;;5094647;28;19961;-64
2022/01/20 13:33:51;;;;;;;;;;;20.10;37.00;;;;;;5094695;28;19912;-63
2022/01/20 13:36:19;;;;;;;;;;;20.10;37.10;;;;;;5094087;28;19912;-64
2022/01/20 13:38:48;;;;;;;;;;;20.10;37.10;;;;;;5094409;28;19908;-63
2022/01/20 13:41:15;;;;;;;;;;;20.10;37.00;;;;;;5075971;28;19931;-64
2022/01/20 13:46:31;;;;;;;;;;;20.00;37.10;;;;;;5093257;28;19919;-64
2022/01/20 13:49:09;;;;;;;;;;;20.10;37.10;;;;;;5064947;28;19917;-64
2022/01/20 13:51:35;;;;;;;;;;;20.00;37.10;;;;;;5075340;28;19962;-64
2022/01/20 13:54:00;;;;;;;;;;;20.00;37.20;;;;;;5093846;28;19910;-64
2022/01/20 13:56:26;;;;;;;;;;;20.00;37.30;;;;;;5092123;28;20007;-64
2022/01/20 13:59:01;;;;;;;;;;;20.00;37.30;;;;;;5093461;28;19928;-64
2022/01/20 14:01:26;;;;;;;;;;;20.00;37.30;;;;;;5093173;28;19996;-64
2022/01/20 14:03:51;;;;;;;;;;;20.00;37.20;;;;;;5093228;28;20379;-64
2022/01/20 14:06:17;;;;;;;;;;;20.00;37.20;;;;;;5093353;28;20394;-64
2022/01/20 14:08:42;;;;;;;;;;;20.00;37.20;;;;;;5093479;28;19913;-64
2022/01/20 14:11:08;;;;;;;;;;;20.10;37.20;;;;;;5092158;28;19912;-65
2022/01/20 14:13:34;;;;;;;;;;;20.10;37.20;;;;;;5072628;28;19991;-64
2022/01/20 14:16:01;;;;;;;;;;;20.10;37.20;;;;;;5055266;28;19908;-65
2022/01/20 14:18:31;;;;;;;;;;;20.10;37.10;;;;;;5092314;28;19912;-65
2022/01/20 14:20:57;;;;;;;;;;;20.10;37.10;;;;;;5093220;28;19927;-64
2022/01/20 14:23:22;;;;;;;;;;;20.10;37.20;;;;;;5084104;28;19916;-64
2022/01/20 14:25:48;;;;;;;;;;;20.10;37.10;;;;;;5092916;28;20347;-64
2022/01/20 14:28:14;;;;;;;;;;;20.10;37.20;;;;;;5093015;28;19912;-64
2022/01/20 14:30:40;;;;;;;;;;;20.10;37.20;;;;;;5092861;28;20367;-63
2022/01/20 14:33:07;;;;;;;;;;;20.10;37.30;;;;;;5091894;28;19908;-63
2022/01/20 14:35:33;;;;;;;;;;;20.10;37.20;;;;;;5092747;28;19912;-63
2022/01/20 14:37:58;;;;;;;;;;;20.10;37.30;;;;;;5089322;28;19934;-64
2022/01/20 14:40:24;;;;;;;;;;;20.10;37.30;;;;;;5088042;28;19920;-63
2022/01/20 14:42:51;;;;;;;;;;;20.00;37.30;;;;;;5071951;28;19962;-63
2022/01/20 14:45:18;;;;;;;;;;;20.00;37.30;;;;;;5089291;28;19946;-65
2022/01/20 14:47:44;;;;;;;;;;;20.10;37.30;;;;;;5090611;28;19935;-64
2022/01/20 14:50:10;;;;;;;;;;;19.90;36.50;;;;;;5092878;28;20355;-65
2022/01/20 14:52:35;;;;;;;;;;;19.60;37.30;;;;;;5091888;28;19994;-65
2022/01/20 14:55:03;;;;;;;;;;;19.70;37.50;;;;;;5073713;28;20348;-64
2022/01/20 14:57:28;;;;;;;;;;;19.80;37.40;;;;;;5092594;28;19985;-64
2022/01/20 14:59:53;;;;;;;;;;;19.90;37.40;;;;;;5073929;28;19954;-64
2022/01/20 15:02:19;;;;;;;;;;;20.00;37.30;;;;;;5092687;28;19908;-64
2022/01/20 15:04:45;;;;;;;;;;;20.00;37.20;;;;;;5091994;28;19940;-65
2022/01/20 15:07:10;;;;;;;;;;;20.00;37.10;;;;;;5092252;28;19915;-65
2022/01/20 15:09:36;;;;;;;;;;;20.00;37.30;;;;;;5085312;28;19916;-65
2022/01/20 15:12:02;;;;;;;;;;;20.00;37.20;;;;;;5091266;28;20007;-65
2022/01/20 15:14:27;;;;;;;;;;;20.00;37.00;;;;;;5092437;28;19909;-65
2022/01/20 15:16:52;;;;;;;;;;;20.00;37.00;;;;;;5092873;28;19954;-67
2022/01/20 15:19:18;;;;;;;;;;;20.00;37.10;;;;;;5092493;28;19916;-66
2022/01/20 15:21:44;;;;;;;;;;;20.00;37.10;;;;;;5091947;28;19958;-67